Aérodrome :
LOGIN :

S'inscrire | Disclaimer

   EN    FR    IT 

 










Légende :    VFR   VFR Marginal   IFR   IFR Intensif   IFR Très Intensif
Visi : 
Plafond : 
>= 8 km
>= 3000ft
5 à 8 km
1000 à 3000 ft
1500m à 5 km
500 à 1000 ft
800 à 1500m
200 à 500 ft
< 800m
< 200 ft
Symboles :   Orages  Brouillard  Fortes neiges  Fortes précipitations  Vent > 20 kt
SIGMETs :   Divers  Orages  Givrage  Turbulence  Onde Orograph.  Cendres Volcan.







- Altitude de l'aérodrome : 16 ft
- Code IATA : LPX


EVLA - Liepaja

DERNIER METAR :
  • 162220Z 00000KT 4400 BR FEW002 SCT004 OVC007 18/18 Q1014

METARs EXPIRÉS :
  • 162150Z 00000KT 3200 -DZ FEW002 SCT005 OVC011 18/18 Q1014
  • 162120Z 00000KT 3400 DZ BKN002 BKN014 OVC020 18/18 Q1014
  • 162050Z 00000KT 8000 FEW004 BKN007 OVC022 18/18 Q1014
  • 162020Z 00000KT 6000 BKN004 BKN008 OVC015 18/18 Q1014
  • 161950Z VRB01KT 4700 FEW003 SCT005 OVC014 18/18 Q1013

TAF TAF EVLA
Valide du 16 à 21h jusqu'au 17 à 21h UTC


162002Z 1621/1721 VRB02KT 6000 SCT005 OVC010
TEMPO 1621/1624 3000 -DZ BR OVC005
TEMPO 1700/1707 BKN005
BECMG 1705/1707 31010KT
Pas de NOTAMs connus pour ce terrain.



MET'MAP, la Météo Aéronautique d'un coup d'oeil ! - Copyright ORBIFLY Décembre 2007 - Disclaimer

ORBIFLY MET'MAP TEAM :

Programmation & Développement : Alexandra Zaïnal
Conception & Développement : Baudouin d'Aumeries
Co-Programmation & Développement : Marc-Olivier Méhu
Soutien technique & logistique : Manuel Goepfert

Contact : metmap@orbifly.com




SOURCES & CREDITS :

   NOAA